sensor_id;sensor_type;location;lat;lon;timestamp;P1;durP1;ratioP1;P2;durP2;ratioP2
23252;SDS011;11795;47.054;15.408;2022-12-11T00:00:38;0.5;;;0.4;;
23252;SDS011;11795;47.054;15.408;2022-12-11T00:02:38;0.5;;;0.4;;
23252;SDS011;11795;47.054;15.408;2022-12-11T00:04:38;0.4;;;0.3;;
23252;SDS011;11795;47.054;15.408;2022-12-11T00:06:38;0.4;;;0.3;;
23252;SDS011;11795;47.054;15.408;2022-12-11T00:08:38;0.4;;;0.3;;
23252;SDS011;11795;47.054;15.408;2022-12-11T00:10:38;0.3;;;0.3;;
23252;SDS011;11795;47.054;15.408;2022-12-11T00:12:38;0.3;;;0.3;;
23252;SDS011;11795;47.054;15.408;2022-12-11T00:14:38;0.7;;;0.5;;
23252;SDS011;11795;47.054;15.408;2022-12-11T00:16:38;0.7;;;0.5;;
23252;SDS011;11795;47.054;15.408;2022-12-11T00:18:38;0.7;;;0.5;;
23252;SDS011;11795;47.054;15.408;2022-12-11T00:20:38;0.7;;;0.4;;
23252;SDS011;11795;47.054;15.408;2022-12-11T00:22:38;0.7;;;0.4;;
23252;SDS011;11795;47.054;15.408;2022-12-11T00:24:38;0.4;;;0.4;;
23252;SDS011;11795;47.054;15.408;2022-12-11T00:26:38;0.4;;;0.4;;
23252;SDS011;11795;47.054;15.408;2022-12-11T00:28:38;0.4;;;0.4;;
23252;SDS011;11795;47.054;15.408;2022-12-11T00:30:38;0.7;;;0.6;;
23252;SDS011;11795;47.054;15.408;2022-12-11T00:32:38;0.7;;;0.6;;
23252;SDS011;11795;47.054;15.408;2022-12-11T00:34:38;0.7;;;0.5;;
23252;SDS011;11795;47.054;15.408;2022-12-11T00:36:38;0.7;;;0.5;;
23252;SDS011;11795;47.054;15.408;2022-12-11T00:38:38;0.7;;;0.5;;
23252;SDS011;11795;47.054;15.408;2022-12-11T00:40:38;0.6;;;0.5;;
23252;SDS011;11795;47.054;15.408;2022-12-11T00:42:38;0.6;;;0.5;;
23252;SDS011;11795;47.054;15.408;2022-12-11T00:44:38;1.0;;;0.5;;
23252;SDS011;11795;47.054;15.408;2022-12-11T00:46:38;1.0;;;0.5;;
23252;SDS011;11795;47.054;15.408;2022-12-11T00:48:38;1.0;;;0.5;;
23252;SDS011;11795;47.054;15.408;2022-12-11T00:50:38;0.5;;;0.5;;
23252;SDS011;11795;47.054;15.408;2022-12-11T00:52:39;0.5;;;0.5;;
23252;SDS011;11795;47.054;15.408;2022-12-11T00:54:38;0.5;;;0.4;;
23252;SDS011;11795;47.054;15.408;2022-12-11T00:56:38;0.5;;;0.4;;
23252;SDS011;11795;47.054;15.408;2022-12-11T00:58:38;0.5;;;0.4;;
23252;SDS011;11795;47.054;15.408;2022-12-11T01:00:38;0.6;;;0.5;;
23252;SDS011;11795;47.054;15.408;2022-12-11T01:02:38;0.6;;;0.5;;
23252;SDS011;11795;47.054;15.408;2022-12-11T01:04:38;0.6;;;0.4;;
23252;SDS011;11795;47.054;15.408;2022-12-11T01:06:38;0.6;;;0.4;;
23252;SDS011;11795;47.054;15.408;2022-12-11T01:08:38;0.6;;;0.4;;
23252;SDS011;11795;47.054;15.408;2022-12-11T01:10:38;0.6;;;0.5;;
23252;SDS011;11795;47.054;15.408;2022-12-11T01:12:38;0.6;;;0.5;;
23252;SDS011;11795;47.054;15.408;2022-12-11T01:14:38;1.0;;;0.7;;
23252;SDS011;11795;47.054;15.408;2022-12-11T01:16:38;1.0;;;0.7;;
23252;SDS011;11795;47.054;15.408;2022-12-11T01:18:38;1.0;;;0.7;;
23252;SDS011;11795;47.054;15.408;2022-12-11T01:20:38;0.6;;;0.5;;
23252;SDS011;11795;47.054;15.408;2022-12-11T01:22:38;0.6;;;0.5;;
23252;SDS011;11795;47.054;15.408;2022-12-11T01:24:38;0.5;;;0.5;;
23252;SDS011;11795;47.054;15.408;2022-12-11T01:26:38;0.5;;;0.5;;
23252;SDS011;11795;47.054;15.408;2022-12-11T01:28:38;0.5;;;0.5;;
23252;SDS011;11795;47.054;15.408;2022-12-11T01:30:39;0.7;;;0.4;;
23252;SDS011;11795;47.054;15.408;2022-12-11T01:32:38;0.7;;;0.4;;
23252;SDS011;11795;47.054;15.408;2022-12-11T01:34:38;0.6;;;0.4;;
23252;SDS011;11795;47.054;15.408;2022-12-11T01:36:38;0.6;;;0.4;;
23252;SDS011;11795;47.054;15.408;2022-12-11T01:38:38;0.6;;;0.4;;
23252;SDS011;11795;47.054;15.408;2022-12-11T01:40:43;0.4;;;0.4;;
23252;SDS011;11795;47.054;15.408;2022-12-11T01:42:38;0.4;;;0.4;;
23252;SDS011;11795;47.054;15.408;2022-12-11T01:46:38;0.5;;;0.4;;
23252;SDS011;11795;47.054;15.408;2022-12-11T01:48:38;0.5;;;0.4;;
23252;SDS011;11795;47.054;15.408;2022-12-11T01:50:39;0.8;;;0.5;;
23252;SDS011;11795;47.054;15.408;2022-12-11T01:52:38;0.8;;;0.5;;
23252;SDS011;11795;47.054;15.408;2022-12-11T01:54:38;0.7;;;0.4;;
23252;SDS011;11795;47.054;15.408;2022-12-11T01:56:38;0.7;;;0.4;;
23252;SDS011;11795;47.054;15.408;2022-12-11T01:58:39;0.7;;;0.4;;
23252;SDS011;11795;47.054;15.408;2022-12-11T02:00:38;0.6;;;0.3;;
23252;SDS011;11795;47.054;15.408;2022-12-11T02:02:38;0.6;;;0.3;;
23252;SDS011;11795;47.054;15.408;2022-12-11T02:04:38;0.6;;;0.4;;
23252;SDS011;11795;47.054;15.408;2022-12-11T02:06:39;0.6;;;0.4;;
23252;SDS011;11795;47.054;15.408;2022-12-11T02:08:38;0.6;;;0.4;;
23252;SDS011;11795;47.054;15.408;2022-12-11T02:10:42;0.6;;;0.5;;
23252;SDS011;11795;47.054;15.408;2022-12-11T02:12:40;0.6;;;0.5;;
23252;SDS011;11795;47.054;15.408;2022-12-11T02:14:40;0.7;;;0.4;;
23252;SDS011;11795;47.054;15.408;2022-12-11T02:16:39;0.7;;;0.4;;
23252;SDS011;11795;47.054;15.408;2022-12-11T02:18:39;0.7;;;0.4;;
23252;SDS011;11795;47.054;15.408;2022-12-11T02:20:40;0.4;;;0.4;;
23252;SDS011;11795;47.054;15.408;2022-12-11T02:22:45;0.4;;;0.4;;
23252;SDS011;11795;47.054;15.408;2022-12-11T02:24:42;0.5;;;0.3;;
23252;SDS011;11795;47.054;15.408;2022-12-11T02:26:46;0.5;;;0.3;;
23252;SDS011;11795;47.054;15.408;2022-12-11T02:28:38;0.5;;;0.3;;
23252;SDS011;11795;47.054;15.408;2022-12-11T02:30:38;0.5;;;0.4;;
23252;SDS011;11795;47.054;15.408;2022-12-11T02:32:40;0.5;;;0.4;;
23252;SDS011;11795;47.054;15.408;2022-12-11T02:34:39;0.6;;;0.4;;
23252;SDS011;11795;47.054;15.408;2022-12-11T02:36:39;0.6;;;0.4;;
23252;SDS011;11795;47.054;15.408;2022-12-11T02:38:38;0.6;;;0.4;;
23252;SDS011;11795;47.054;15.408;2022-12-11T02:40:39;0.5;;;0.3;;
23252;SDS011;11795;47.054;15.408;2022-12-11T02:42:39;0.5;;;0.3;;
23252;SDS011;11795;47.054;15.408;2022-12-11T02:44:38;0.5;;;0.4;;
23252;SDS011;11795;47.054;15.408;2022-12-11T02:46:38;0.5;;;0.4;;
23252;SDS011;11795;47.054;15.408;2022-12-11T02:48:38;0.5;;;0.4;;
23252;SDS011;11795;47.054;15.408;2022-12-11T02:50:40;0.7;;;0.4;;
23252;SDS011;11795;47.054;15.408;2022-12-11T02:52:38;0.7;;;0.4;;
23252;SDS011;11795;47.054;15.408;2022-12-11T02:54:38;0.4;;;0.3;;
23252;SDS011;11795;47.054;15.408;2022-12-11T02:56:39;0.4;;;0.3;;
23252;SDS011;11795;47.054;15.408;2022-12-11T02:58:38;0.4;;;0.3;;
23252;SDS011;11795;47.054;15.408;2022-12-11T03:00:38;1.2;;;0.3;;
23252;SDS011;11795;47.054;15.408;2022-12-11T03:02:38;1.2;;;0.3;;
23252;SDS011;11795;47.054;15.408;2022-12-11T03:04:38;0.6;;;0.4;;
23252;SDS011;11795;47.054;15.408;2022-12-11T03:06:40;0.6;;;0.4;;
23252;SDS011;11795;47.054;15.408;2022-12-11T03:08:38;0.6;;;0.4;;
23252;SDS011;11795;47.054;15.408;2022-12-11T03:10:38;0.7;;;0.3;;
23252;SDS011;11795;47.054;15.408;2022-12-11T03:12:39;0.7;;;0.3;;
23252;SDS011;11795;47.054;15.408;2022-12-11T03:14:38;0.6;;;0.4;;
23252;SDS011;11795;47.054;15.408;2022-12-11T03:16:38;0.6;;;0.4;;
23252;SDS011;11795;47.054;15.408;2022-12-11T03:18:38;0.6;;;0.4;;
23252;SDS011;11795;47.054;15.408;2022-12-11T03:20:40;0.8;;;0.4;;
23252;SDS011;11795;47.054;15.408;2022-12-11T03:22:39;0.8;;;0.4;;
23252;SDS011;11795;47.054;15.408;2022-12-11T03:24:39;1.5;;;0.4;;
23252;SDS011;11795;47.054;15.408;2022-12-11T03:26:39;1.5;;;0.4;;
23252;SDS011;11795;47.054;15.408;2022-12-11T03:28:40;1.5;;;0.4;;
23252;SDS011;11795;47.054;15.408;2022-12-11T03:30:38;0.6;;;0.4;;
23252;SDS011;11795;47.054;15.408;2022-12-11T03:32:39;0.6;;;0.4;;
23252;SDS011;11795;47.054;15.408;2022-12-11T03:34:40;0.5;;;0.4;;
23252;SDS011;11795;47.054;15.408;2022-12-11T03:36:38;0.5;;;0.4;;
23252;SDS011;11795;47.054;15.408;2022-12-11T03:38:39;0.5;;;0.4;;
23252;SDS011;11795;47.054;15.408;2022-12-11T03:40:38;0.4;;;0.3;;
23252;SDS011;11795;47.054;15.408;2022-12-11T03:42:38;0.4;;;0.3;;
23252;SDS011;11795;47.054;15.408;2022-12-11T03:44:38;0.8;;;0.4;;
23252;SDS011;11795;47.054;15.408;2022-12-11T03:46:38;0.8;;;0.4;;
23252;SDS011;11795;47.054;15.408;2022-12-11T03:48:40;0.8;;;0.4;;
23252;SDS011;11795;47.054;15.408;2022-12-11T03:50:38;0.5;;;0.4;;
23252;SDS011;11795;47.054;15.408;2022-12-11T03:52:39;0.5;;;0.4;;
23252;SDS011;11795;47.054;15.408;2022-12-11T03:54:38;0.6;;;0.5;;
23252;SDS011;11795;47.054;15.408;2022-12-11T03:56:38;0.6;;;0.5;;
23252;SDS011;11795;47.054;15.408;2022-12-11T03:58:38;0.6;;;0.5;;
23252;SDS011;11795;47.054;15.408;2022-12-11T04:00:38;0.4;;;0.4;;
23252;SDS011;11795;47.054;15.408;2022-12-11T04:02:38;0.4;;;0.4;;
23252;SDS011;11795;47.054;15.408;2022-12-11T04:04:39;1.0;;;0.7;;
23252;SDS011;11795;47.054;15.408;2022-12-11T04:06:38;1.0;;;0.7;;
23252;SDS011;11795;47.054;15.408;2022-12-11T04:08:38;1.0;;;0.7;;
23252;SDS011;11795;47.054;15.408;2022-12-11T04:10:38;0.5;;;0.5;;
23252;SDS011;11795;47.054;15.408;2022-12-11T04:12:38;0.5;;;0.5;;
23252;SDS011;11795;47.054;15.408;2022-12-11T04:14:48;2.1;;;0.7;;
23252;SDS011;11795;47.054;15.408;2022-12-11T04:16:38;2.1;;;0.7;;
23252;SDS011;11795;47.054;15.408;2022-12-11T04:18:48;2.1;;;0.7;;
23252;SDS011;11795;47.054;15.408;2022-12-11T04:20:48;0.6;;;0.6;;
23252;SDS011;11795;47.054;15.408;2022-12-11T04:22:48;0.6;;;0.6;;
23252;SDS011;11795;47.054;15.408;2022-12-11T04:24:38;0.6;;;0.6;;
23252;SDS011;11795;47.054;15.408;2022-12-11T04:26:38;0.6;;;0.6;;
23252;SDS011;11795;47.054;15.408;2022-12-11T04:28:38;0.6;;;0.6;;
23252;SDS011;11795;47.054;15.408;2022-12-11T04:30:38;1.2;;;0.7;;
23252;SDS011;11795;47.054;15.408;2022-12-11T04:32:38;1.2;;;0.7;;
23252;SDS011;11795;47.054;15.408;2022-12-11T04:34:40;0.8;;;0.7;;
23252;SDS011;11795;47.054;15.408;2022-12-11T04:36:38;0.8;;;0.7;;
23252;SDS011;11795;47.054;15.408;2022-12-11T04:38:38;0.8;;;0.7;;
23252;SDS011;11795;47.054;15.408;2022-12-11T04:40:38;0.8;;;0.7;;
23252;SDS011;11795;47.054;15.408;2022-12-11T04:42:38;0.8;;;0.7;;
23252;SDS011;11795;47.054;15.408;2022-12-11T04:44:38;1.4;;;0.8;;
23252;SDS011;11795;47.054;15.408;2022-12-11T04:46:38;1.4;;;0.8;;
23252;SDS011;11795;47.054;15.408;2022-12-11T04:48:38;1.4;;;0.8;;
23252;SDS011;11795;47.054;15.408;2022-12-11T04:50:38;1.1;;;0.8;;
23252;SDS011;11795;47.054;15.408;2022-12-11T04:52:38;1.1;;;0.8;;
23252;SDS011;11795;47.054;15.408;2022-12-11T04:54:39;1.1;;;1.0;;
23252;SDS011;11795;47.054;15.408;2022-12-11T04:56:38;1.1;;;1.0;;
23252;SDS011;11795;47.054;15.408;2022-12-11T04:58:38;1.1;;;1.0;;
23252;SDS011;11795;47.054;15.408;2022-12-11T05:00:38;1.4;;;1.1;;
23252;SDS011;11795;47.054;15.408;2022-12-11T05:02:39;1.4;;;1.1;;
23252;SDS011;11795;47.054;15.408;2022-12-11T05:04:38;1.1;;;1.0;;
23252;SDS011;11795;47.054;15.408;2022-12-11T05:06:38;1.1;;;1.0;;
23252;SDS011;11795;47.054;15.408;2022-12-11T05:08:40;1.1;;;1.0;;
23252;SDS011;11795;47.054;15.408;2022-12-11T05:10:38;1.2;;;0.8;;
23252;SDS011;11795;47.054;15.408;2022-12-11T05:12:38;1.2;;;0.8;;
23252;SDS011;11795;47.054;15.408;2022-12-11T05:14:38;1.0;;;0.9;;
23252;SDS011;11795;47.054;15.408;2022-12-11T05:16:38;1.0;;;0.9;;
23252;SDS011;11795;47.054;15.408;2022-12-11T05:18:38;1.0;;;0.9;;
23252;SDS011;11795;47.054;15.408;2022-12-11T05:20:39;1.7;;;1.0;;
23252;SDS011;11795;47.054;15.408;2022-12-11T05:22:38;1.7;;;1.0;;
23252;SDS011;11795;47.054;15.408;2022-12-11T05:24:38;1.3;;;1.2;;
23252;SDS011;11795;47.054;15.408;2022-12-11T05:26:38;1.3;;;1.2;;
23252;SDS011;11795;47.054;15.408;2022-12-11T05:28:39;1.3;;;1.2;;
23252;SDS011;11795;47.054;15.408;2022-12-11T05:30:38;1.4;;;0.9;;
23252;SDS011;11795;47.054;15.408;2022-12-11T05:32:38;1.4;;;0.9;;
23252;SDS011;11795;47.054;15.408;2022-12-11T05:34:38;2.1;;;1.7;;
23252;SDS011;11795;47.054;15.408;2022-12-11T05:36:38;2.1;;;1.7;;
23252;SDS011;11795;47.054;15.408;2022-12-11T05:38:38;2.1;;;1.7;;
23252;SDS011;11795;47.054;15.408;2022-12-11T05:40:38;1.4;;;1.1;;
23252;SDS011;11795;47.054;15.408;2022-12-11T05:42:38;1.4;;;1.1;;
23252;SDS011;11795;47.054;15.408;2022-12-11T05:44:38;1.2;;;0.9;;
23252;SDS011;11795;47.054;15.408;2022-12-11T05:46:38;1.2;;;0.9;;
23252;SDS011;11795;47.054;15.408;2022-12-11T05:48:38;1.2;;;0.9;;
23252;SDS011;11795;47.054;15.408;2022-12-11T05:50:38;1.0;;;0.9;;
23252;SDS011;11795;47.054;15.408;2022-12-11T05:52:38;1.0;;;0.9;;
23252;SDS011;11795;47.054;15.408;2022-12-11T05:54:38;1.4;;;1.0;;
23252;SDS011;11795;47.054;15.408;2022-12-11T05:56:38;1.4;;;1.0;;
23252;SDS011;11795;47.054;15.408;2022-12-11T05:58:38;1.4;;;1.0;;
23252;SDS011;11795;47.054;15.408;2022-12-11T06:00:40;1.1;;;0.9;;
23252;SDS011;11795;47.054;15.408;2022-12-11T06:02:38;1.1;;;0.9;;
23252;SDS011;11795;47.054;15.408;2022-12-11T06:04:38;1.2;;;0.9;;
23252;SDS011;11795;47.054;15.408;2022-12-11T06:06:39;1.2;;;0.9;;
23252;SDS011;11795;47.054;15.408;2022-12-11T06:08:38;1.2;;;0.9;;
23252;SDS011;11795;47.054;15.408;2022-12-11T06:10:43;1.9;;;1.3;;
23252;SDS011;11795;47.054;15.408;2022-12-11T06:12:38;1.9;;;1.3;;
23252;SDS011;11795;47.054;15.408;2022-12-11T06:14:40;1.1;;;1.0;;
23252;SDS011;11795;47.054;15.408;2022-12-11T06:16:38;1.1;;;1.0;;
23252;SDS011;11795;47.054;15.408;2022-12-11T06:18:39;1.1;;;1.0;;
23252;SDS011;11795;47.054;15.408;2022-12-11T06:20:38;1.6;;;1.4;;
23252;SDS011;11795;47.054;15.408;2022-12-11T06:22:38;1.6;;;1.4;;
23252;SDS011;11795;47.054;15.408;2022-12-11T06:24:38;1.9;;;1.1;;
23252;SDS011;11795;47.054;15.408;2022-12-11T06:26:38;1.9;;;1.1;;
23252;SDS011;11795;47.054;15.408;2022-12-11T06:28:38;1.9;;;1.1;;
23252;SDS011;11795;47.054;15.408;2022-12-11T06:30:38;1.4;;;1.1;;
23252;SDS011;11795;47.054;15.408;2022-12-11T06:32:38;1.4;;;1.1;;
23252;SDS011;11795;47.054;15.408;2022-12-11T06:34:38;1.5;;;1.2;;
23252;SDS011;11795;47.054;15.408;2022-12-11T06:36:38;1.5;;;1.2;;
23252;SDS011;11795;47.054;15.408;2022-12-11T06:38:38;1.5;;;1.2;;
23252;SDS011;11795;47.054;15.408;2022-12-11T06:40:38;1.9;;;1.3;;
23252;SDS011;11795;47.054;15.408;2022-12-11T06:42:38;1.9;;;1.3;;
23252;SDS011;11795;47.054;15.408;2022-12-11T06:44:38;2.2;;;1.6;;
23252;SDS011;11795;47.054;15.408;2022-12-11T06:46:38;2.2;;;1.6;;
23252;SDS011;11795;47.054;15.408;2022-12-11T06:48:39;2.2;;;1.6;;
23252;SDS011;11795;47.054;15.408;2022-12-11T06:50:38;1.5;;;1.1;;
23252;SDS011;11795;47.054;15.408;2022-12-11T06:52:38;1.5;;;1.1;;
23252;SDS011;11795;47.054;15.408;2022-12-11T06:54:38;1.9;;;1.3;;
23252;SDS011;11795;47.054;15.408;2022-12-11T06:56:38;1.9;;;1.3;;
23252;SDS011;11795;47.054;15.408;2022-12-11T06:58:39;1.9;;;1.3;;
23252;SDS011;11795;47.054;15.408;2022-12-11T07:00:38;1.9;;;1.2;;
23252;SDS011;11795;47.054;15.408;2022-12-11T07:02:38;1.9;;;1.2;;
23252;SDS011;11795;47.054;15.408;2022-12-11T07:04:38;1.7;;;1.2;;
23252;SDS011;11795;47.054;15.408;2022-12-11T07:06:38;1.7;;;1.2;;
23252;SDS011;11795;47.054;15.408;2022-12-11T07:08:38;1.7;;;1.2;;
23252;SDS011;11795;47.054;15.408;2022-12-11T07:10:39;1.7;;;1.5;;
23252;SDS011;11795;47.054;15.408;2022-12-11T07:12:38;1.7;;;1.5;;
23252;SDS011;11795;47.054;15.408;2022-12-11T07:14:38;2.4;;;1.9;;
23252;SDS011;11795;47.054;15.408;2022-12-11T07:16:38;2.4;;;1.9;;
23252;SDS011;11795;47.054;15.408;2022-12-11T07:18:39;2.4;;;1.9;;
23252;SDS011;11795;47.054;15.408;2022-12-11T07:20:38;1.8;;;1.4;;
23252;SDS011;11795;47.054;15.408;2022-12-11T07:22:38;1.8;;;1.4;;
23252;SDS011;11795;47.054;15.408;2022-12-11T07:24:38;1.4;;;1.3;;
23252;SDS011;11795;47.054;15.408;2022-12-11T07:26:38;1.4;;;1.3;;
23252;SDS011;11795;47.054;15.408;2022-12-11T07:28:39;1.4;;;1.3;;
23252;SDS011;11795;47.054;15.408;2022-12-11T07:30:38;1.5;;;1.1;;
23252;SDS011;11795;47.054;15.408;2022-12-11T07:32:38;1.5;;;1.1;;
23252;SDS011;11795;47.054;15.408;2022-12-11T07:34:39;1.6;;;1.2;;
23252;SDS011;11795;47.054;15.408;2022-12-11T07:36:38;1.6;;;1.2;;
23252;SDS011;11795;47.054;15.408;2022-12-11T07:38:38;1.6;;;1.2;;
23252;SDS011;11795;47.054;15.408;2022-12-11T07:40:38;2.0;;;1.3;;
23252;SDS011;11795;47.054;15.408;2022-12-11T07:42:38;2.0;;;1.3;;
23252;SDS011;11795;47.054;15.408;2022-12-11T07:44:38;1.7;;;1.4;;
23252;SDS011;11795;47.054;15.408;2022-12-11T07:46:38;1.7;;;1.4;;
23252;SDS011;11795;47.054;15.408;2022-12-11T07:48:39;1.7;;;1.4;;
23252;SDS011;11795;47.054;15.408;2022-12-11T07:50:38;1.9;;;1.3;;
23252;SDS011;11795;47.054;15.408;2022-12-11T07:52:38;1.9;;;1.3;;
23252;SDS011;11795;47.054;15.408;2022-12-11T07:54:38;1.6;;;1.5;;
23252;SDS011;11795;47.054;15.408;2022-12-11T07:56:39;1.6;;;1.5;;
23252;SDS011;11795;47.054;15.408;2022-12-11T07:58:39;1.6;;;1.5;;
23252;SDS011;11795;47.054;15.408;2022-12-11T08:00:39;2.0;;;1.7;;
23252;SDS011;11795;47.054;15.408;2022-12-11T08:02:38;2.0;;;1.7;;
23252;SDS011;11795;47.054;15.408;2022-12-11T08:04:38;2.4;;;1.8;;
23252;SDS011;11795;47.054;15.408;2022-12-11T08:06:39;2.4;;;1.8;;
23252;SDS011;11795;47.054;15.408;2022-12-11T08:08:39;2.4;;;1.8;;
23252;SDS011;11795;47.054;15.408;2022-12-11T08:10:38;1.7;;;1.4;;
23252;SDS011;11795;47.054;15.408;2022-12-11T08:12:38;1.7;;;1.4;;
23252;SDS011;11795;47.054;15.408;2022-12-11T08:14:38;2.3;;;1.9;;
23252;SDS011;11795;47.054;15.408;2022-12-11T08:16:42;2.3;;;1.9;;
23252;SDS011;11795;47.054;15.408;2022-12-11T08:18:39;2.3;;;1.9;;
23252;SDS011;11795;47.054;15.408;2022-12-11T08:20:38;2.4;;;2.0;;
23252;SDS011;11795;47.054;15.408;2022-12-11T08:22:38;2.4;;;2.0;;
23252;SDS011;11795;47.054;15.408;2022-12-11T08:24:39;2.2;;;1.7;;
23252;SDS011;11795;47.054;15.408;2022-12-11T08:26:38;2.2;;;1.7;;
23252;SDS011;11795;47.054;15.408;2022-12-11T08:28:38;2.2;;;1.7;;
23252;SDS011;11795;47.054;15.408;2022-12-11T08:30:39;1.8;;;1.6;;
23252;SDS011;11795;47.054;15.408;2022-12-11T08:32:38;1.8;;;1.6;;
23252;SDS011;11795;47.054;15.408;2022-12-11T08:34:39;2.5;;;1.9;;
23252;SDS011;11795;47.054;15.408;2022-12-11T08:36:39;2.5;;;1.9;;
23252;SDS011;11795;47.054;15.408;2022-12-11T08:38:39;2.5;;;1.9;;
23252;SDS011;11795;47.054;15.408;2022-12-11T08:40:39;2.2;;;1.7;;
23252;SDS011;11795;47.054;15.408;2022-12-11T08:42:38;2.2;;;1.7;;
23252;SDS011;11795;47.054;15.408;2022-12-11T08:44:38;2.1;;;1.9;;
23252;SDS011;11795;47.054;15.408;2022-12-11T08:46:38;2.1;;;1.9;;
23252;SDS011;11795;47.054;15.408;2022-12-11T08:48:39;2.1;;;1.9;;
23252;SDS011;11795;47.054;15.408;2022-12-11T08:50:39;1.6;;;1.4;;
23252;SDS011;11795;47.054;15.408;2022-12-11T08:52:39;1.6;;;1.4;;
23252;SDS011;11795;47.054;15.408;2022-12-11T08:54:39;2.4;;;1.7;;
23252;SDS011;11795;47.054;15.408;2022-12-11T08:56:39;2.4;;;1.7;;
23252;SDS011;11795;47.054;15.408;2022-12-11T08:58:39;2.4;;;1.7;;
23252;SDS011;11795;47.054;15.408;2022-12-11T09:00:39;2.4;;;1.9;;
23252;SDS011;11795;47.054;15.408;2022-12-11T09:02:39;2.4;;;1.9;;
23252;SDS011;11795;47.054;15.408;2022-12-11T09:04:39;2.4;;;2.0;;
23252;SDS011;11795;47.054;15.408;2022-12-11T09:06:39;2.4;;;2.0;;
23252;SDS011;11795;47.054;15.408;2022-12-11T09:08:39;2.4;;;2.0;;
23252;SDS011;11795;47.054;15.408;2022-12-11T09:10:39;2.4;;;2.1;;
23252;SDS011;11795;47.054;15.408;2022-12-11T09:12:39;2.4;;;2.1;;
23252;SDS011;11795;47.054;15.408;2022-12-11T09:14:39;2.5;;;2.1;;
23252;SDS011;11795;47.054;15.408;2022-12-11T09:16:39;2.5;;;2.1;;
23252;SDS011;11795;47.054;15.408;2022-12-11T09:18:39;2.5;;;2.1;;
23252;SDS011;11795;47.054;15.408;2022-12-11T09:20:39;2.8;;;2.2;;
23252;SDS011;11795;47.054;15.408;2022-12-11T09:22:39;2.8;;;2.2;;
23252;SDS011;11795;47.054;15.408;2022-12-11T09:24:39;2.0;;;1.6;;
23252;SDS011;11795;47.054;15.408;2022-12-11T09:26:39;2.0;;;1.6;;
23252;SDS011;11795;47.054;15.408;2022-12-11T09:28:39;2.0;;;1.6;;
23252;SDS011;11795;47.054;15.408;2022-12-11T09:30:39;2.0;;;1.7;;
23252;SDS011;11795;47.054;15.408;2022-12-11T09:32:39;2.0;;;1.7;;
23252;SDS011;11795;47.054;15.408;2022-12-11T09:34:39;1.7;;;1.6;;
23252;SDS011;11795;47.054;15.408;2022-12-11T09:36:39;1.7;;;1.6;;
23252;SDS011;11795;47.054;15.408;2022-12-11T09:38:39;1.7;;;1.6;;
23252;SDS011;11795;47.054;15.408;2022-12-11T09:40:39;2.2;;;1.8;;
23252;SDS011;11795;47.054;15.408;2022-12-11T09:42:43;2.2;;;1.8;;
23252;SDS011;11795;47.054;15.408;2022-12-11T09:44:40;2.1;;;1.9;;
23252;SDS011;11795;47.054;15.408;2022-12-11T09:46:39;2.1;;;1.9;;
23252;SDS011;11795;47.054;15.408;2022-12-11T09:48:39;2.1;;;1.9;;
23252;SDS011;11795;47.054;15.408;2022-12-11T09:50:39;1.9;;;1.6;;
23252;SDS011;11795;47.054;15.408;2022-12-11T09:52:39;1.9;;;1.6;;
23252;SDS011;11795;47.054;15.408;2022-12-11T09:54:40;2.2;;;1.8;;
23252;SDS011;11795;47.054;15.408;2022-12-11T09:56:41;2.2;;;1.8;;
23252;SDS011;11795;47.054;15.408;2022-12-11T09:58:49;2.2;;;1.8;;
23252;SDS011;11795;47.054;15.408;2022-12-11T10:00:39;2.6;;;2.4;;
23252;SDS011;11795;47.054;15.408;2022-12-11T10:02:44;2.6;;;2.4;;
23252;SDS011;11795;47.054;15.408;2022-12-11T10:04:40;2.2;;;1.6;;
23252;SDS011;11795;47.054;15.408;2022-12-11T10:06:40;2.2;;;1.6;;
23252;SDS011;11795;47.054;15.408;2022-12-11T10:08:41;2.2;;;1.6;;
23252;SDS011;11795;47.054;15.408;2022-12-11T10:10:40;2.4;;;1.9;;
23252;SDS011;11795;47.054;15.408;2022-12-11T10:12:41;2.4;;;1.9;;
23252;SDS011;11795;47.054;15.408;2022-12-11T10:14:42;1.9;;;1.7;;
23252;SDS011;11795;47.054;15.408;2022-12-11T10:16:39;1.9;;;1.7;;
23252;SDS011;11795;47.054;15.408;2022-12-11T10:18:39;1.9;;;1.7;;
23252;SDS011;11795;47.054;15.408;2022-12-11T10:20:40;1.9;;;1.7;;
23252;SDS011;11795;47.054;15.408;2022-12-11T10:22:39;1.9;;;1.7;;
23252;SDS011;11795;47.054;15.408;2022-12-11T10:24:39;1.9;;;1.6;;
23252;SDS011;11795;47.054;15.408;2022-12-11T10:26:39;1.9;;;1.6;;
23252;SDS011;11795;47.054;15.408;2022-12-11T10:28:39;1.9;;;1.6;;
23252;SDS011;11795;47.054;15.408;2022-12-11T10:30:39;2.3;;;1.9;;
23252;SDS011;11795;47.054;15.408;2022-12-11T10:32:41;2.3;;;1.9;;
23252;SDS011;11795;47.054;15.408;2022-12-11T10:34:39;2.1;;;1.9;;
23252;SDS011;11795;47.054;15.408;2022-12-11T10:36:39;2.1;;;1.9;;
23252;SDS011;11795;47.054;15.408;2022-12-11T10:38:41;2.1;;;1.9;;
23252;SDS011;11795;47.054;15.408;2022-12-11T10:40:40;2.2;;;2.0;;
23252;SDS011;11795;47.054;15.408;2022-12-11T10:42:39;2.2;;;2.0;;
23252;SDS011;11795;47.054;15.408;2022-12-11T10:44:39;3.0;;;1.8;;
23252;SDS011;11795;47.054;15.408;2022-12-11T10:46:39;3.0;;;1.8;;
23252;SDS011;11795;47.054;15.408;2022-12-11T10:48:43;3.0;;;1.8;;
23252;SDS011;11795;47.054;15.408;2022-12-11T10:50:39;2.0;;;1.7;;
23252;SDS011;11795;47.054;15.408;2022-12-11T10:52:41;2.0;;;1.7;;
23252;SDS011;11795;47.054;15.408;2022-12-11T10:54:40;2.5;;;2.0;;
23252;SDS011;11795;47.054;15.408;2022-12-11T10:56:39;2.5;;;2.0;;
23252;SDS011;11795;47.054;15.408;2022-12-11T10:58:47;2.5;;;2.0;;
23252;SDS011;11795;47.054;15.408;2022-12-11T11:00:39;1.9;;;1.7;;
23252;SDS011;11795;47.054;15.408;2022-12-11T11:02:39;1.9;;;1.7;;
23252;SDS011;11795;47.054;15.408;2022-12-11T11:04:40;2.2;;;1.9;;
23252;SDS011;11795;47.054;15.408;2022-12-11T11:06:39;2.2;;;1.9;;
23252;SDS011;11795;47.054;15.408;2022-12-11T11:08:39;2.2;;;1.9;;
23252;SDS011;11795;47.054;15.408;2022-12-11T11:10:48;2.4;;;2.1;;
23252;SDS011;11795;47.054;15.408;2022-12-11T11:12:40;2.4;;;2.1;;
23252;SDS011;11795;47.054;15.408;2022-12-11T11:14:39;2.9;;;2.1;;
23252;SDS011;11795;47.054;15.408;2022-12-11T11:16:39;2.9;;;2.1;;
23252;SDS011;11795;47.054;15.408;2022-12-11T11:18:39;2.9;;;2.1;;
23252;SDS011;11795;47.054;15.408;2022-12-11T11:20:41;2.3;;;2.1;;
23252;SDS011;11795;47.054;15.408;2022-12-11T11:22:40;2.3;;;2.1;;
23252;SDS011;11795;47.054;15.408;2022-12-11T11:24:40;2.6;;;2.1;;
23252;SDS011;11795;47.054;15.408;2022-12-11T11:26:39;2.6;;;2.1;;
23252;SDS011;11795;47.054;15.408;2022-12-11T11:28:39;2.6;;;2.1;;
23252;SDS011;11795;47.054;15.408;2022-12-11T11:30:39;2.4;;;2.1;;
23252;SDS011;11795;47.054;15.408;2022-12-11T11:32:39;2.4;;;2.1;;
23252;SDS011;11795;47.054;15.408;2022-12-11T11:34:39;2.3;;;2.1;;
23252;SDS011;11795;47.054;15.408;2022-12-11T11:36:39;2.3;;;2.1;;
23252;SDS011;11795;47.054;15.408;2022-12-11T11:38:40;2.3;;;2.1;;
23252;SDS011;11795;47.054;15.408;2022-12-11T11:40:40;2.5;;;2.3;;
23252;SDS011;11795;47.054;15.408;2022-12-11T11:42:41;2.5;;;2.3;;
23252;SDS011;11795;47.054;15.408;2022-12-11T11:44:42;2.2;;;2.0;;
23252;SDS011;11795;47.054;15.408;2022-12-11T11:46:40;2.2;;;2.0;;
23252;SDS011;11795;47.054;15.408;2022-12-11T11:48:42;2.2;;;2.0;;
23252;SDS011;11795;47.054;15.408;2022-12-11T11:50:39;2.4;;;2.0;;
23252;SDS011;11795;47.054;15.408;2022-12-11T11:52:39;2.4;;;2.0;;
23252;SDS011;11795;47.054;15.408;2022-12-11T11:54:40;2.5;;;2.1;;
23252;SDS011;11795;47.054;15.408;2022-12-11T11:56:39;2.5;;;2.1;;
23252;SDS011;11795;47.054;15.408;2022-12-11T11:58:40;2.5;;;2.1;;
23252;SDS011;11795;47.054;15.408;2022-12-11T12:00:39;3.4;;;2.6;;
23252;SDS011;11795;47.054;15.408;2022-12-11T12:02:39;3.4;;;2.6;;
23252;SDS011;11795;47.054;15.408;2022-12-11T12:04:39;2.8;;;2.3;;
23252;SDS011;11795;47.054;15.408;2022-12-11T12:06:43;2.8;;;2.3;;
23252;SDS011;11795;47.054;15.408;2022-12-11T12:08:41;2.8;;;2.3;;
23252;SDS011;11795;47.054;15.408;2022-12-11T12:10:42;2.5;;;2.1;;
23252;SDS011;11795;47.054;15.408;2022-12-11T12:12:41;2.5;;;2.1;;
23252;SDS011;11795;47.054;15.408;2022-12-11T12:14:42;2.6;;;2.1;;